Morton S Bouchard Jr — WSE9678 — position and weather

sailwx.info

Track history (hours):
 
Tides and Currents Weather Stations Pressure Air Temp Water Temp Dewpoint Dewpoint Depression Visibility Wind Speed Wind Dir Waves Ship Positions

Morton S Bouchard Jr

Owner: BOUCHARD TRANSPORTATION CO INC, MELVILLE, NY. More information available from US FCC via Universal Licensing System and Coast Guard Vessel Documentation Center.

Last reported at 2017-Oct-18 16:30 UTC. Time now 2017-Oct-18 16:57 UTC.
Position N 40°39' W 074°06'.

Length 33 m; draft 5.6 m.

Type: Tug. MMSI: 367006550.

Date/timePositionNaut miles runAvg speedWind from/ knotsBaromVisibWave heightAir tempDewpointWater temp
2017-Oct-18 16:30N 40°39' W 074°06'4 7.9
2017-Oct-18 16:00N 40°39' W 074°11'4 7.4
2017-Oct-18 15:30N 40°35' W 074°13'1 1.8
2017-Oct-18 15:00N 40°36' W 074°12'6 6.0
2017-Oct-18 14:01N 40°39' W 074°05'3 5.3
2017-Oct-18 13:30N 40°40' W 074°02'1 1.6
2017-Oct-18 13:01N 40°41' W 074°02'3 6.6
2017-Oct-18 12:30N 40°43' W 073°58'4 7.0
2017-Oct-18 12:00N 40°46' W 073°57'3 6.3
2017-Oct-18 11:30N 40°48' W 073°54'4 7.9
2017-Oct-18 10:59N 40°48' W 073°48'4 7.9
2017-Oct-18 10:30N 40°51' W 073°45'0 0.0
2017-Oct-17 13:07N 40°51' W 073°45'1 7.5
2017-Oct-17 12:56N 40°50' W 073°46'3 6.1
2017-Oct-17 12:30N 40°48' W 073°49'4 8.1
2017-Oct-17 12:00N 40°48' W 073°54'5 9.2
2017-Oct-17 11:30N 40°45' W 073°58'4 8.0
2017-Oct-17 11:01N 40°41' W 074°01'4 8.1
2017-Oct-17 10:30N 40°39' W 074°05'4 7.0
2017-Oct-17 10:01N 40°39' W 074°10'3 6.5
2017-Oct-17 09:29N 40°36' W 074°12'3 6.1
2017-Oct-17 09:00N 40°33' W 074°14'0 0.0
2017-Oct-17 08:30N 40°33' W 074°14'0 0.1
2017-Oct-17 08:00N 40°34' W 074°14'0 0.2
2017-Oct-17 07:29N 40°33' W 074°14'3 6.1
2017-Oct-17 07:00N 40°36' W 074°12'3 6.6
2017-Oct-17 06:31N 40°39' W 074°10'2 4.5
2017-Oct-17 06:01N 40°39' W 074°07'0 0.0
2017-Oct-17 05:31N 40°39' W 074°07'0 0.0
2017-Oct-17 05:00N 40°39' W 074°07'0 0.0
2017-Oct-17 04:31N 40°39' W 074°07'0 0.0
2017-Oct-17 04:00N 40°39' W 074°07'0 0.0
2017-Oct-17 03:30N 40°39' W 074°07'1 3.0
2017-Oct-17 03:00N 40°39' W 074°09'3 6.6
2017-Oct-17 02:31N 40°36' W 074°12'0 0.0
2017-Oct-17 02:00N 40°36' W 074°12'1 1.1
2017-Oct-17 01:30N 40°37' W 074°12'1 1.5
2017-Oct-17 01:00N 40°38' W 074°12'0 0.5
2017-Oct-17 00:30N 40°37' W 074°12'4 8.1
2017-Oct-17 00:00N 40°33' W 074°14'1 1.2
2017-Oct-16 23:29N 40°33' W 074°15'0 0.1
2017-Oct-16 22:59N 40°33' W 074°14'0 0.2
2017-Oct-16 22:21N 40°33' W 074°14'0 0.1
2017-Oct-16 21:51N 40°33' W 074°14'1 2.4
2017-Oct-16 21:18N 40°34' W 074°13'1 2.8
2017-Oct-16 21:00N 40°35' W 074°13'1 1.6
2017-Oct-16 20:24N 40°36' W 074°12'0 0.0
2017-Oct-16 19:58N 40°36' W 074°12'3 5.6
2017-Oct-16 19:30N 40°38' W 074°12'4 7.8
2017-Oct-16 19:00N 40°39' W 074°07'5 9.5
2017-Oct-16 18:31N 40°41' W 074°01'1 1.7
2017-Oct-16 18:01N 40°41' W 074°00'2 3.7
2017-Oct-16 17:31N 40°40' W 074°02'3 6.8
2017-Oct-16 17:01N 40°39' W 074°06'1 1.0
2017-Oct-16 16:30N 40°39' W 074°07'1 1.1
2017-Oct-16 16:00N 40°39' W 074°06'3 5.1
2017-Oct-16 15:31N 40°39' W 074°03'0 0.5
2017-Oct-16 15:01N 40°39' W 074°02'0 0.0
2017-Oct-16 14:01N 40°39' W 074°02'0 0.0
2017-Oct-16 13:29N 40°39' W 074°02'0 0.0
2017-Oct-16 12:58N 40°39' W 074°02'0 0.0
2017-Oct-16 12:28N 40°39' W 074°02'0 0.0
2017-Oct-16 11:58N 40°39' W 074°02'0 0.0
2017-Oct-16 11:28N 40°39' W 074°02'0 0.0
2017-Oct-16 10:58N 40°39' W 074°02'0 0.0
2017-Oct-16 10:28N 40°39' W 074°02'0 0.0
2017-Oct-16 09:58N 40°39' W 074°02'0 0.1
2017-Oct-16 09:28N 40°39' W 074°02'0 0.0
2017-Oct-16 08:58N 40°39' W 074°02'0 0.0
2017-Oct-16 08:28N 40°39' W 074°02'0 0.0
2017-Oct-16 07:58N 40°39' W 074°02'0 0.0
2017-Oct-16 07:28N 40°39' W 074°02'0 0.0
2017-Oct-16 06:58N 40°39' W 074°02'0 0.1
2017-Oct-16 06:31N 40°39' W 074°02'0 0.0
2017-Oct-16 06:01N 40°39' W 074°02'0 0.0
2017-Oct-16 05:31N 40°39' W 074°02'0 0.0
2017-Oct-16 05:00N 40°39' W 074°02'0 0.1
2017-Oct-16 04:30N 40°39' W 074°02'0 0.0
2017-Oct-16 04:00N 40°39' W 074°02'0 0.1
2017-Oct-16 03:30N 40°39' W 074°02'0 0.0
2017-Oct-16 03:00N 40°39' W 074°02'0 0.0
2017-Oct-16 02:30N 40°39' W 074°02'0 0.1
2017-Oct-16 02:00N 40°39' W 074°03'0 0.1
2017-Oct-16 01:30N 40°39' W 074°02'0 0.0
2017-Oct-16 01:00N 40°39' W 074°02'0 0.0
2017-Oct-16 00:30N 40°39' W 074°02'0 0.0
2017-Oct-16 00:00N 40°39' W 074°02'0 0.0
2017-Oct-15 23:30N 40°39' W 074°02'0 0.0
2017-Oct-15 23:00N 40°39' W 074°02'0 0.0
2017-Oct-15 22:30N 40°39' W 074°02'0 0.0
2017-Oct-15 22:00N 40°39' W 074°02'0 0.0
2017-Oct-15 21:30N 40°39' W 074°02'0 0.0
2017-Oct-15 21:00N 40°39' W 074°02'0 0.0
2017-Oct-15 20:30N 40°39' W 074°02'0 0.0
2017-Oct-15 20:00N 40°39' W 074°02'0 0.0
2017-Oct-15 19:30N 40°39' W 074°02'0 0.0
2017-Oct-15 19:00N 40°39' W 074°02'0 0.0
2017-Oct-15 18:30N 40°39' W 074°02'0 0.0
2017-Oct-15 18:00N 40°39' W 074°02'0 0.0
2017-Oct-15 17:30N 40°39' W 074°02'0 0.0
2017-Oct-15 17:00N 40°39' W 074°02'0 0.0
2017-Oct-15 16:30N 40°39' W 074°02'0 0.1
2017-Oct-15 16:00N 40°39' W 074°03'0 0.1
2017-Oct-15 15:30N 40°39' W 074°03'0 0.1
2017-Oct-15 15:00N 40°39' W 074°03'0 0.1
2017-Oct-15 13:59N 40°39' W 074°03'0 0.0
2017-Oct-15 13:29N 40°39' W 074°03'0 0.0
2017-Oct-15 12:59N 40°39' W 074°03'0 0.0
2017-Oct-15 12:29N 40°39' W 074°03'0 0.0
2017-Oct-15 11:59N 40°39' W 074°03'0 0.0
2017-Oct-15 11:29N 40°39' W 074°03'0 0.1
2017-Oct-15 10:59N 40°39' W 074°03'0 0.0
2017-Oct-15 10:26N 40°39' W 074°03'0 0.0
2017-Oct-15 09:56N 40°39' W 074°03'0 0.0
2017-Oct-15 09:29N 40°39' W 074°03'0 0.0
2017-Oct-15 08:59N 40°39' W 074°03'0 0.0
2017-Oct-15 08:29N 40°39' W 074°03'0 0.0
2017-Oct-15 07:59N 40°39' W 074°03'0 0.0
2017-Oct-15 07:29N 40°39' W 074°03'0 0.0
2017-Oct-15 06:59N 40°39' W 074°03'0 0.0
2017-Oct-15 06:29N 40°39' W 074°03'0 0.0
2017-Oct-15 05:59N 40°39' W 074°03'0 0.1
2017-Oct-15 05:29N 40°39' W 074°03'0 0.1
2017-Oct-15 04:59N 40°39' W 074°03'0 0.0
2017-Oct-15 04:29N 40°39' W 074°03'0 0.0
2017-Oct-15 03:59N 40°39' W 074°03'0 0.0
2017-Oct-15 03:29N 40°39' W 074°03'0 0.0
2017-Oct-15 02:59N 40°39' W 074°03'0 0.0
2017-Oct-15 02:29N 40°39' W 074°03'0 0.0
2017-Oct-15 01:59N 40°39' W 074°03'0 0.0
2017-Oct-15 01:29N 40°39' W 074°03'0 0.0
2017-Oct-15 00:59N 40°39' W 074°03'0 0.0
2017-Oct-15 00:29N 40°39' W 074°03'0 0.0
2017-Oct-14 23:59N 40°39' W 074°03'0 0.0
2017-Oct-14 23:29N 40°39' W 074°03'0 0.1
2017-Oct-14 22:59N 40°39' W 074°03'0 0.1
2017-Oct-14 22:29N 40°39' W 074°03'0 0.1
2017-Oct-14 21:59N 40°39' W 074°03'0 0.0
2017-Oct-14 21:26N 40°39' W 074°03'0 0.0
2017-Oct-14 20:56N 40°39' W 074°03'0 0.0
2017-Oct-14 20:29N 40°39' W 074°03'0 0.0
2017-Oct-14 19:59N 40°39' W 074°03'0 0.0
2017-Oct-14 19:26N 40°39' W 074°03'0 0.0
2017-Oct-14 18:56N 40°39' W 074°03'0 0.1
2017-Oct-14 18:29N 40°39' W 074°03'0 0.1
2017-Oct-14 17:59N 40°39' W 074°03'0 0.0
2017-Oct-14 17:29N 40°39' W 074°03'0 0.0
2017-Oct-14 16:59N 40°39' W 074°03'0 0.0
2017-Oct-14 16:29N 40°39' W 074°03'0 0.0
2017-Oct-14 15:59N 40°39' W 074°03'0 0.0
2017-Oct-14 15:29N 40°39' W 074°03'0 0.0
2017-Oct-14 14:59N 40°39' W 074°03'0 0.0
2017-Oct-14 14:29N 40°39' W 074°03'0 0.0
2017-Oct-14 13:59N 40°39' W 074°03'0 0.0
2017-Oct-14 13:29N 40°39' W 074°03'0 0.0
2017-Oct-14 12:59N 40°39' W 074°03'0 0.0
2017-Oct-14 12:29N 40°39' W 074°03'0 0.0
2017-Oct-14 11:59N 40°39' W 074°03'0 0.0
2017-Oct-14 11:29N 40°39' W 074°03'0 0.0
2017-Oct-14 10:58N 40°39' W 074°03'0 0.0
2017-Oct-14 10:28N 40°39' W 074°03'0 0.0
2017-Oct-14 09:58N 40°39' W 074°03'0 0.0
2017-Oct-14 09:28N 40°39' W 074°03'0 0.0
2017-Oct-14 08:58N 40°39' W 074°03'0 0.0
2017-Oct-14 08:28N 40°39' W 074°03'0 0.0
2017-Oct-14 07:58N 40°39' W 074°03'0 0.0
2017-Oct-14 07:29N 40°39' W 074°03'0 0.0
2017-Oct-14 07:00N 40°39' W 074°03'0 0.0
2017-Oct-14 06:30N 40°39' W 074°03'0 0.7
2017-Oct-14 06:00N 40°39' W 074°02'4 7.8
2017-Oct-14 05:30N 40°42' W 073°60'3 6.7
2017-Oct-14 05:00N 40°45' W 073°58'4 7.5
2017-Oct-14 04:30N 40°48' W 073°54'4 8.8
2017-Oct-14 04:00N 40°48' W 073°48'3 6.9
2017-Oct-14 03:30N 40°51' W 073°46'0 0.0
2017-Oct-12 21:18N 40°51' W 073°45'2 7.3
2017-Oct-12 21:00N 40°49' W 073°47'3 6.0
2017-Oct-12 20:29N 40°48' W 073°51'4 7.4
2017-Oct-12 20:00N 40°47' W 073°55'4 7.4
2017-Oct-12 19:30N 40°44' W 073°58'3 6.4
2017-Oct-12 19:00N 40°42' W 074°00'3 5.3
2017-Oct-12 18:30N 40°39' W 074°02'2 3.3
2017-Oct-12 18:00N 40°39' W 074°04'3 5.3
2017-Oct-12 17:30N 40°39' W 074°07'3 5.4
2017-Oct-12 17:00N 40°39' W 074°11'3 5.4
2017-Oct-12 16:30N 40°36' W 074°12'3 5.5
2017-Oct-12 15:59N 40°33' W 074°13'2 1.3
2017-Oct-12 14:32N 40°33' W 074°15'1 7.8
2017-Oct-12 14:22N 40°33' W 074°14'3 7.8
2017-Oct-12 14:00N 40°36' W 074°12'4 7.2
2017-Oct-12 13:30N 40°39' W 074°09'2 4.7
2017-Oct-12 12:59N 40°39' W 074°06'0 0.0
2017-Oct-12 12:30N 40°39' W 074°06'0 0.0
2017-Oct-12 12:00N 40°39' W 074°06'0 0.0
2017-Oct-12 11:30N 40°39' W 074°06'0 0.0
2017-Oct-12 11:00N 40°39' W 074°06'0 0.0
2017-Oct-12 10:30N 40°39' W 074°06'0 0.0
2017-Oct-12 10:00N 40°39' W 074°06'0 0.0
2017-Oct-12 09:30N 40°39' W 074°06'0 0.0
2017-Oct-12 09:00N 40°39' W 074°06'0 0.0
2017-Oct-12 08:30N 40°39' W 074°06'0 0.0
2017-Oct-12 07:59N 40°39' W 074°06'0 0.0
2017-Oct-12 07:30N 40°39' W 074°06'0 0.0
2017-Oct-12 07:00N 40°39' W 074°06'0 0.0
2017-Oct-12 06:30N 40°39' W 074°06'1 1.9
2017-Oct-12 06:00N 40°39' W 074°07'0 0.8
2017-Oct-12 05:30N 40°39' W 074°06'0 0.8
2017-Oct-12 05:00N 40°39' W 074°06'0 0.4
2017-Oct-12 04:31N 40°39' W 074°06'0 0.0
2017-Oct-12 04:00N 40°39' W 074°06'0 0.0
2017-Oct-12 03:28N 40°39' W 074°06'0 0.0
2017-Oct-12 02:58N 40°39' W 074°06'0 0.0
2017-Oct-12 02:28N 40°39' W 074°06'1 1.9
2017-Oct-12 02:00N 40°39' W 074°07'4 8.3
2017-Oct-12 01:30N 40°38' W 074°12'5 8.9
2017-Oct-12 01:00N 40°33' W 074°14'1 0.8
2017-Oct-11 23:21N 40°32' W 074°15'2 5.5
2017-Oct-11 23:00N 40°33' W 074°13'5 9.7
2017-Oct-11 22:30N 40°38' W 074°12'4 8.7
2017-Oct-11 21:59N 40°39' W 074°06'0 0.4
2017-Oct-11 21:28N 40°39' W 074°06'0 0.0
2017-Oct-11 20:40N 40°39' W 074°06'0 0.0
2017-Oct-11 20:29N 40°39' W 074°06'0 0.0
2017-Oct-11 19:58N 40°39' W 074°06'0 0.0
2017-Oct-11 19:25N 40°39' W 074°06'0 0.0
2017-Oct-11 18:58N 40°39' W 074°06'0 0.0
2017-Oct-11 18:28N 40°39' W 074°06'1 2.2
2017-Oct-11 18:00N 40°39' W 074°04'4 7.7
2017-Oct-11 17:30N 40°42' W 074°00'3 5.8
2017-Oct-11 17:00N 40°44' W 073°58'7 0.4
2017-Oct-11 00:00N 40°39' W 074°04'1 2.5
2017-Oct-10 23:30N 40°39' W 074°03'1 2.6
2017-Oct-10 23:00N 40°40' W 074°02'2 4.0
2017-Oct-10 22:28N 40°41' W 074°00'0 0.1
2017-Oct-10 21:58N 40°41' W 074°00'0 0.2
2017-Oct-10 21:30N 40°41' W 074°00'2 4.2
2017-Oct-10 21:00N 40°40' W 074°02'0 0.0
2017-Oct-10 20:30N 40°40' W 074°02'1 2.3
2017-Oct-10 20:00N 40°41' W 074°01'0 0.8
2017-Oct-10 19:30N 40°41' W 074°01'1 3.0
2017-Oct-10 19:00N 40°40' W 074°02'1 2.4
2017-Oct-10 18:30N 40°41' W 074°01'4 8.5
2017-Oct-10 18:00N 40°44' W 073°58'4 7.8
2017-Oct-10 17:30N 40°47' W 073°55'3 7.0
2017-Oct-10 17:00N 40°48' W 073°50'4 7.2
2017-Oct-10 16:30N 40°50' W 073°46'  
Track history (hours):
 
Tides and Currents Weather Stations Pressure Air Temp Water Temp Dewpoint Dewpoint Depression Visibility Wind Speed Wind Dir Waves Ship Positions

Morton S Bouchard Jr

Owner: BOUCHARD TRANSPORTATION CO INC, MELVILLE, NY. More information available from US FCC via Universal Licensing System and Coast Guard Vessel Documentation Center.

Last reported at 2017-Oct-18 16:30 UTC. Time now 2017-Oct-18 16:57 UTC.
Position N 40°39' W 074°06'.

Length 33 m; draft 5.6 m.

Type: Tug. MMSI: 367006550.

Date/timePositionNaut miles runAvg speedWind from/ knotsBaromVisibWave heightAir tempDewpointWater temp
2017-Oct-18 16:30N 40°39' W 074°06'4 7.9
2017-Oct-18 16:00N 40°39' W 074°11'4 7.4
2017-Oct-18 15:30N 40°35' W 074°13'1 1.8
2017-Oct-18 15:00N 40°36' W 074°12'6 6.0
2017-Oct-18 14:01N 40°39' W 074°05'3 5.3
2017-Oct-18 13:30N 40°40' W 074°02'1 1.6
2017-Oct-18 13:01N 40°41' W 074°02'3 6.6
2017-Oct-18 12:30N 40°43' W 073°58'4 7.0
2017-Oct-18 12:00N 40°46' W 073°57'3 6.3
2017-Oct-18 11:30N 40°48' W 073°54'4 7.9
2017-Oct-18 10:59N 40°48' W 073°48'4 7.9
2017-Oct-18 10:30N 40°51' W 073°45'0 0.0
2017-Oct-17 13:07N 40°51' W 073°45'1 7.5
2017-Oct-17 12:56N 40°50' W 073°46'3 6.1
2017-Oct-17 12:30N 40°48' W 073°49'4 8.1
2017-Oct-17 12:00N 40°48' W 073°54'5 9.2
2017-Oct-17 11:30N 40°45' W 073°58'4 8.0
2017-Oct-17 11:01N 40°41' W 074°01'4 8.1
2017-Oct-17 10:30N 40°39' W 074°05'4 7.0
2017-Oct-17 10:01N 40°39' W 074°10'3 6.5
2017-Oct-17 09:29N 40°36' W 074°12'3 6.1
2017-Oct-17 09:00N 40°33' W 074°14'0 0.0
2017-Oct-17 08:30N 40°33' W 074°14'0 0.1
2017-Oct-17 08:00N 40°34' W 074°14'0 0.2
2017-Oct-17 07:29N 40°33' W 074°14'3 6.1
2017-Oct-17 07:00N 40°36' W 074°12'3 6.6
2017-Oct-17 06:31N 40°39' W 074°10'2 4.5
2017-Oct-17 06:01N 40°39' W 074°07'0 0.0
2017-Oct-17 05:31N 40°39' W 074°07'0 0.0
2017-Oct-17 05:00N 40°39' W 074°07'0 0.0
2017-Oct-17 04:31N 40°39' W 074°07'0 0.0
2017-Oct-17 04:00N 40°39' W 074°07'0 0.0
2017-Oct-17 03:30N 40°39' W 074°07'1 3.0
2017-Oct-17 03:00N 40°39' W 074°09'3 6.6
2017-Oct-17 02:31N 40°36' W 074°12'0 0.0
2017-Oct-17 02:00N 40°36' W 074°12'1 1.1
2017-Oct-17 01:30N 40°37' W 074°12'1 1.5
2017-Oct-17 01:00N 40°38' W 074°12'0 0.5
2017-Oct-17 00:30N 40°37' W 074°12'4 8.1
2017-Oct-17 00:00N 40°33' W 074°14'1 1.2
2017-Oct-16 23:29N 40°33' W 074°15'0 0.1
2017-Oct-16 22:59N 40°33' W 074°14'0 0.2
2017-Oct-16 22:21N 40°33' W 074°14'0 0.1
2017-Oct-16 21:51N 40°33' W 074°14'1 2.4
2017-Oct-16 21:18N 40°34' W 074°13'1 2.8
2017-Oct-16 21:00N 40°35' W 074°13'1 1.6
2017-Oct-16 20:24N 40°36' W 074°12'0 0.0
2017-Oct-16 19:58N 40°36' W 074°12'3 5.6
2017-Oct-16 19:30N 40°38' W 074°12'4 7.8
2017-Oct-16 19:00N 40°39' W 074°07'5 9.5
2017-Oct-16 18:31N 40°41' W 074°01'1 1.7
2017-Oct-16 18:01N 40°41' W 074°00'2 3.7
2017-Oct-16 17:31N 40°40' W 074°02'3 6.8
2017-Oct-16 17:01N 40°39' W 074°06'1 1.0
2017-Oct-16 16:30N 40°39' W 074°07'1 1.1
2017-Oct-16 16:00N 40°39' W 074°06'3 5.1
2017-Oct-16 15:31N 40°39' W 074°03'0 0.5
2017-Oct-16 15:01N 40°39' W 074°02'0 0.0
2017-Oct-16 14:01N 40°39' W 074°02'0 0.0
2017-Oct-16 13:29N 40°39' W 074°02'0 0.0
2017-Oct-16 12:58N 40°39' W 074°02'0 0.0
2017-Oct-16 12:28N 40°39' W 074°02'0 0.0
2017-Oct-16 11:58N 40°39' W 074°02'0 0.0
2017-Oct-16 11:28N 40°39' W 074°02'0 0.0
2017-Oct-16 10:58N 40°39' W 074°02'0 0.0
2017-Oct-16 10:28N 40°39' W 074°02'0 0.0
2017-Oct-16 09:58N 40°39' W 074°02'0 0.1
2017-Oct-16 09:28N 40°39' W 074°02'0 0.0
2017-Oct-16 08:58N 40°39' W 074°02'0 0.0
2017-Oct-16 08:28N 40°39' W 074°02'0 0.0
2017-Oct-16 07:58N 40°39' W 074°02'0 0.0
2017-Oct-16 07:28N 40°39' W 074°02'0 0.0
2017-Oct-16 06:58N 40°39' W 074°02'0 0.1
2017-Oct-16 06:31N 40°39' W 074°02'0 0.0
2017-Oct-16 06:01N 40°39' W 074°02'0 0.0
2017-Oct-16 05:31N 40°39' W 074°02'0 0.0
2017-Oct-16 05:00N 40°39' W 074°02'0 0.1
2017-Oct-16 04:30N 40°39' W 074°02'0 0.0
2017-Oct-16 04:00N 40°39' W 074°02'0 0.1
2017-Oct-16 03:30N 40°39' W 074°02'0 0.0
2017-Oct-16 03:00N 40°39' W 074°02'0 0.0
2017-Oct-16 02:30N 40°39' W 074°02'0 0.1
2017-Oct-16 02:00N 40°39' W 074°03'0 0.1
2017-Oct-16 01:30N 40°39' W 074°02'0 0.0
2017-Oct-16 01:00N 40°39' W 074°02'0 0.0
2017-Oct-16 00:30N 40°39' W 074°02'0 0.0
2017-Oct-16 00:00N 40°39' W 074°02'0 0.0
2017-Oct-15 23:30N 40°39' W 074°02'0 0.0
2017-Oct-15 23:00N 40°39' W 074°02'0 0.0
2017-Oct-15 22:30N 40°39' W 074°02'0 0.0
2017-Oct-15 22:00N 40°39' W 074°02'0 0.0
2017-Oct-15 21:30N 40°39' W 074°02'0 0.0
2017-Oct-15 21:00N 40°39' W 074°02'0 0.0
2017-Oct-15 20:30N 40°39' W 074°02'0 0.0
2017-Oct-15 20:00N 40°39' W 074°02'0 0.0
2017-Oct-15 19:30N 40°39' W 074°02'0 0.0
2017-Oct-15 19:00N 40°39' W 074°02'0 0.0
2017-Oct-15 18:30N 40°39' W 074°02'0 0.0
2017-Oct-15 18:00N 40°39' W 074°02'0 0.0
2017-Oct-15 17:30N 40°39' W 074°02'0 0.0
2017-Oct-15 17:00N 40°39' W 074°02'0 0.0
2017-Oct-15 16:30N 40°39' W 074°02'0 0.1
2017-Oct-15 16:00N 40°39' W 074°03'0 0.1
2017-Oct-15 15:30N 40°39' W 074°03'0 0.1
2017-Oct-15 15:00N 40°39' W 074°03'0 0.1
2017-Oct-15 13:59N 40°39' W 074°03'0 0.0
2017-Oct-15 13:29N 40°39' W 074°03'0 0.0
2017-Oct-15 12:59N 40°39' W 074°03'0 0.0
2017-Oct-15 12:29N 40°39' W 074°03'0 0.0
2017-Oct-15 11:59N 40°39' W 074°03'0 0.0
2017-Oct-15 11:29N 40°39' W 074°03'0 0.1
2017-Oct-15 10:59N 40°39' W 074°03'0 0.0
2017-Oct-15 10:26N 40°39' W 074°03'0 0.0
2017-Oct-15 09:56N 40°39' W 074°03'0 0.0
2017-Oct-15 09:29N 40°39' W 074°03'0 0.0
2017-Oct-15 08:59N 40°39' W 074°03'0 0.0
2017-Oct-15 08:29N 40°39' W 074°03'0 0.0
2017-Oct-15 07:59N 40°39' W 074°03'0 0.0
2017-Oct-15 07:29N 40°39' W 074°03'0 0.0
2017-Oct-15 06:59N 40°39' W 074°03'0 0.0
2017-Oct-15 06:29N 40°39' W 074°03'0 0.0
2017-Oct-15 05:59N 40°39' W 074°03'0 0.1
2017-Oct-15 05:29N 40°39' W 074°03'0 0.1
2017-Oct-15 04:59N 40°39' W 074°03'0 0.0
2017-Oct-15 04:29N 40°39' W 074°03'0 0.0
2017-Oct-15 03:59N 40°39' W 074°03'0 0.0
2017-Oct-15 03:29N 40°39' W 074°03'0 0.0
2017-Oct-15 02:59N 40°39' W 074°03'0 0.0
2017-Oct-15 02:29N 40°39' W 074°03'0 0.0
2017-Oct-15 01:59N 40°39' W 074°03'0 0.0
2017-Oct-15 01:29N 40°39' W 074°03'0 0.0
2017-Oct-15 00:59N 40°39' W 074°03'0 0.0
2017-Oct-15 00:29N 40°39' W 074°03'0 0.0
2017-Oct-14 23:59N 40°39' W 074°03'0 0.0
2017-Oct-14 23:29N 40°39' W 074°03'0 0.1
2017-Oct-14 22:59N 40°39' W 074°03'0 0.1
2017-Oct-14 22:29N 40°39' W 074°03'0 0.1
2017-Oct-14 21:59N 40°39' W 074°03'0 0.0
2017-Oct-14 21:26N 40°39' W 074°03'0 0.0
2017-Oct-14 20:56N 40°39' W 074°03'0 0.0
2017-Oct-14 20:29N 40°39' W 074°03'0 0.0
2017-Oct-14 19:59N 40°39' W 074°03'0 0.0
2017-Oct-14 19:26N 40°39' W 074°03'0 0.0
2017-Oct-14 18:56N 40°39' W 074°03'0 0.1
2017-Oct-14 18:29N 40°39' W 074°03'0 0.1
2017-Oct-14 17:59N 40°39' W 074°03'0 0.0
2017-Oct-14 17:29N 40°39' W 074°03'0 0.0
2017-Oct-14 16:59N 40°39' W 074°03'0 0.0
2017-Oct-14 16:29N 40°39' W 074°03'0 0.0
2017-Oct-14 15:59N 40°39' W 074°03'0 0.0
2017-Oct-14 15:29N 40°39' W 074°03'0 0.0
2017-Oct-14 14:59N 40°39' W 074°03'0 0.0
2017-Oct-14 14:29N 40°39' W 074°03'0 0.0
2017-Oct-14 13:59N 40°39' W 074°03'0 0.0
2017-Oct-14 13:29N 40°39' W 074°03'0 0.0
2017-Oct-14 12:59N 40°39' W 074°03'0 0.0
2017-Oct-14 12:29N 40°39' W 074°03'0 0.0
2017-Oct-14 11:59N 40°39' W 074°03'0 0.0
2017-Oct-14 11:29N 40°39' W 074°03'0 0.0
2017-Oct-14 10:58N 40°39' W 074°03'0 0.0
2017-Oct-14 10:28N 40°39' W 074°03'0 0.0
2017-Oct-14 09:58N 40°39' W 074°03'0 0.0
2017-Oct-14 09:28N 40°39' W 074°03'0 0.0
2017-Oct-14 08:58N 40°39' W 074°03'0 0.0
2017-Oct-14 08:28N 40°39' W 074°03'0 0.0
2017-Oct-14 07:58N 40°39' W 074°03'0 0.0
2017-Oct-14 07:29N 40°39' W 074°03'0 0.0
2017-Oct-14 07:00N 40°39' W 074°03'0 0.0
2017-Oct-14 06:30N 40°39' W 074°03'0 0.7
2017-Oct-14 06:00N 40°39' W 074°02'4 7.8
2017-Oct-14 05:30N 40°42' W 073°60'3 6.7
2017-Oct-14 05:00N 40°45' W 073°58'4 7.5
2017-Oct-14 04:30N 40°48' W 073°54'4 8.8
2017-Oct-14 04:00N 40°48' W 073°48'3 6.9
2017-Oct-14 03:30N 40°51' W 073°46'0 0.0
2017-Oct-12 21:18N 40°51' W 073°45'2 7.3
2017-Oct-12 21:00N 40°49' W 073°47'3 6.0
2017-Oct-12 20:29N 40°48' W 073°51'4 7.4
2017-Oct-12 20:00N 40°47' W 073°55'4 7.4
2017-Oct-12 19:30N 40°44' W 073°58'3 6.4
2017-Oct-12 19:00N 40°42' W 074°00'3 5.3
2017-Oct-12 18:30N 40°39' W 074°02'2 3.3
2017-Oct-12 18:00N 40°39' W 074°04'3 5.3
2017-Oct-12 17:30N 40°39' W 074°07'3 5.4
2017-Oct-12 17:00N 40°39' W 074°11'3 5.4
2017-Oct-12 16:30N 40°36' W 074°12'3 5.5
2017-Oct-12 15:59N 40°33' W 074°13'2 1.3
2017-Oct-12 14:32N 40°33' W 074°15'1 7.8
2017-Oct-12 14:22N 40°33' W 074°14'3 7.8
2017-Oct-12 14:00N 40°36' W 074°12'4 7.2
2017-Oct-12 13:30N 40°39' W 074°09'2 4.7
2017-Oct-12 12:59N 40°39' W 074°06'0 0.0
2017-Oct-12 12:30N 40°39' W 074°06'0 0.0
2017-Oct-12 12:00N 40°39' W 074°06'0 0.0
2017-Oct-12 11:30N 40°39' W 074°06'0 0.0
2017-Oct-12 11:00N 40°39' W 074°06'0 0.0
2017-Oct-12 10:30N 40°39' W 074°06'0 0.0
2017-Oct-12 10:00N 40°39' W 074°06'0 0.0
2017-Oct-12 09:30N 40°39' W 074°06'0 0.0
2017-Oct-12 09:00N 40°39' W 074°06'0 0.0
2017-Oct-12 08:30N 40°39' W 074°06'0 0.0
2017-Oct-12 07:59N 40°39' W 074°06'0 0.0
2017-Oct-12 07:30N 40°39' W 074°06'0 0.0
2017-Oct-12 07:00N 40°39' W 074°06'0 0.0
2017-Oct-12 06:30N 40°39' W 074°06'1 1.9
2017-Oct-12 06:00N 40°39' W 074°07'0 0.8
2017-Oct-12 05:30N 40°39' W 074°06'0 0.8
2017-Oct-12 05:00N 40°39' W 074°06'0 0.4
2017-Oct-12 04:31N 40°39' W 074°06'0 0.0
2017-Oct-12 04:00N 40°39' W 074°06'0 0.0
2017-Oct-12 03:28N 40°39' W 074°06'0 0.0
2017-Oct-12 02:58N 40°39' W 074°06'0 0.0
2017-Oct-12 02:28N 40°39' W 074°06'1 1.9
2017-Oct-12 02:00N 40°39' W 074°07'4 8.3
2017-Oct-12 01:30N 40°38' W 074°12'5 8.9
2017-Oct-12 01:00N 40°33' W 074°14'1 0.8
2017-Oct-11 23:21N 40°32' W 074°15'2 5.5
2017-Oct-11 23:00N 40°33' W 074°13'5 9.7
2017-Oct-11 22:30N 40°38' W 074°12'4 8.7
2017-Oct-11 21:59N 40°39' W 074°06'0 0.4
2017-Oct-11 21:28N 40°39' W 074°06'0 0.0
2017-Oct-11 20:40N 40°39' W 074°06'0 0.0
2017-Oct-11 20:29N 40°39' W 074°06'0 0.0
2017-Oct-11 19:58N 40°39' W 074°06'0 0.0
2017-Oct-11 19:25N 40°39' W 074°06'0 0.0
2017-Oct-11 18:58N 40°39' W 074°06'0 0.0
2017-Oct-11 18:28N 40°39' W 074°06'1 2.2
2017-Oct-11 18:00N 40°39' W 074°04'4 7.7
2017-Oct-11 17:30N 40°42' W 074°00'3 5.8
2017-Oct-11 17:00N 40°44' W 073°58'7 0.4
2017-Oct-11 00:00N 40°39' W 074°04'1 2.5
2017-Oct-10 23:30N 40°39' W 074°03'1 2.6
2017-Oct-10 23:00N 40°40' W 074°02'2 4.0
2017-Oct-10 22:28N 40°41' W 074°00'0 0.1
2017-Oct-10 21:58N 40°41' W 074°00'0 0.2
2017-Oct-10 21:30N 40°41' W 074°00'2 4.2
2017-Oct-10 21:00N 40°40' W 074°02'0 0.0
2017-Oct-10 20:30N 40°40' W 074°02'1 2.3
2017-Oct-10 20:00N 40°41' W 074°01'0 0.8
2017-Oct-10 19:30N 40°41' W 074°01'1 3.0
2017-Oct-10 19:00N 40°40' W 074°02'1 2.4
2017-Oct-10 18:30N 40°41' W 074°01'4 8.5
2017-Oct-10 18:00N 40°44' W 073°58'4 7.8
2017-Oct-10 17:30N 40°47' W 073°55'3 7.0
2017-Oct-10 17:00N 40°48' W 073°50'4 7.2
2017-Oct-10 16:30N 40°50' W 073°46'  

Dump ship's entire track history